Pine Hall, North Carolina
Current Conditions -  °F | °C
As of 6:35 PM on Saturday 22 Nov 2014 (Local Time) from KSIF Reporting Station
Clear Clear  
Wind Chill: 33°   Ceiling: Unl
Heat Index: 33°   Visibility: 10mi
Dew Point: 24°   Wind: 0mph
Humidity: 70%   Direction: NA
Pressure: 30.34"   Gusts: NA
Location:  36.32°N, 80.05°W
Report Text: KSIF 222335Z AUTO 00000KT 10SM CLR 00/M04 A3034 RMK AO2 T00041045
Loading
Personal Weather Stations






























Interactive Weather Map New forecast layout! Learn more

10-Day Weather Forecast

Advertisements
Track Severe Weather on mobile